sensor_id;sensor_type;location;lat;lon;timestamp;P1;durP1;ratioP1;P2;durP2;ratioP2
67193;SDS011;54121;53.508;49.422;2022-09-21T00:00:51;75.05;;;15.55;;
67193;SDS011;54121;53.508;49.422;2022-09-21T00:03:18;58.05;;;15.48;;
67193;SDS011;54121;53.508;49.422;2022-09-21T00:05:45;67.85;;;15.45;;
67193;SDS011;54121;53.508;49.422;2022-09-21T00:08:12;62.15;;;15.50;;
67193;SDS011;54121;53.508;49.422;2022-09-21T00:10:39;89.70;;;17.85;;
67193;SDS011;54121;53.508;49.422;2022-09-21T00:13:06;68.80;;;16.80;;
67193;SDS011;54121;53.508;49.422;2022-09-21T00:15:33;58.30;;;15.30;;
67193;SDS011;54121;53.508;49.422;2022-09-21T00:18:00;63.10;;;15.15;;
67193;SDS011;54121;53.508;49.422;2022-09-21T00:20:28;47.45;;;13.57;;
67193;SDS011;54121;53.508;49.422;2022-09-21T00:22:54;41.42;;;12.80;;
67193;SDS011;54121;53.508;49.422;2022-09-21T00:25:21;24.75;;;10.63;;
67193;SDS011;54121;53.508;49.422;2022-09-21T00:27:47;50.33;;;13.07;;
67193;SDS011;54121;53.508;49.422;2022-09-21T00:30:16;38.83;;;11.77;;
67193;SDS011;54121;53.508;49.422;2022-09-21T00:32:43;39.45;;;11.82;;
67193;SDS011;54121;53.508;49.422;2022-09-21T00:35:09;26.20;;;10.63;;
67193;SDS011;54121;53.508;49.422;2022-09-21T00:37:35;28.00;;;9.65;;
67193;SDS011;54121;53.508;49.422;2022-09-21T00:40:02;26.15;;;10.43;;
67193;SDS011;54121;53.508;49.422;2022-09-21T00:42:30;20.08;;;9.40;;
67193;SDS011;54121;53.508;49.422;2022-09-21T00:44:58;18.67;;;9.07;;
67193;SDS011;54121;53.508;49.422;2022-09-21T00:47:26;15.40;;;7.90;;
67193;SDS011;54121;53.508;49.422;2022-09-21T00:50:04;17.92;;;8.30;;
67193;SDS011;54121;53.508;49.422;2022-09-21T00:52:36;12.20;;;8.13;;
67193;SDS011;54121;53.508;49.422;2022-09-21T00:57:52;51.50;;;12.00;;
67193;SDS011;54121;53.508;49.422;2022-09-21T01:00:22;44.35;;;11.20;;
67193;SDS011;54121;53.508;49.422;2022-09-21T01:02:48;43.60;;;11.93;;
67193;SDS011;54121;53.508;49.422;2022-09-21T01:05:16;29.30;;;10.48;;
67193;SDS011;54121;53.508;49.422;2022-09-21T01:07:43;24.77;;;8.27;;
67193;SDS011;54121;53.508;49.422;2022-09-21T01:10:12;18.05;;;7.90;;
67193;SDS011;54121;53.508;49.422;2022-09-21T01:16:10;31.27;;;10.05;;
67193;SDS011;54121;53.508;49.422;2022-09-21T01:18:48;29.70;;;9.52;;
67193;SDS011;54121;53.508;49.422;2022-09-21T01:21:20;19.30;;;8.68;;
67193;SDS011;54121;53.508;49.422;2022-09-21T01:29:43;13.05;;;7.82;;
67193;SDS011;54121;53.508;49.422;2022-09-21T01:32:17;10.60;;;7.65;;
67193;SDS011;54121;53.508;49.422;2022-09-21T01:35:28;13.40;;;8.68;;
67193;SDS011;54121;53.508;49.422;2022-09-21T01:40:38;20.30;;;9.90;;
67193;SDS011;54121;53.508;49.422;2022-09-21T01:43:08;25.42;;;11.75;;
67193;SDS011;54121;53.508;49.422;2022-09-21T01:45:46;37.00;;;20.02;;
67193;SDS011;54121;53.508;49.422;2022-09-21T01:48:17;38.97;;;22.08;;
67193;SDS011;54121;53.508;49.422;2022-09-21T01:50:48;27.27;;;13.52;;
67193;SDS011;54121;53.508;49.422;2022-09-21T01:55:59;46.25;;;22.23;;
67193;SDS011;54121;53.508;49.422;2022-09-21T01:58:32;41.00;;;20.08;;
67193;SDS011;54121;53.508;49.422;2022-09-21T02:01:00;30.60;;;16.25;;
67193;SDS011;54121;53.508;49.422;2022-09-21T02:03:36;38.10;;;15.35;;
67193;SDS011;54121;53.508;49.422;2022-09-21T02:06:06;27.77;;;13.15;;
67193;SDS011;54121;53.508;49.422;2022-09-21T02:08:34;33.67;;;14.90;;
67193;SDS011;54121;53.508;49.422;2022-09-21T02:11:03;36.70;;;15.18;;
67193;SDS011;54121;53.508;49.422;2022-09-21T02:13:34;28.55;;;14.90;;
67193;SDS011;54121;53.508;49.422;2022-09-21T02:21:19;29.10;;;11.57;;
67193;SDS011;54121;53.508;49.422;2022-09-21T02:24:32;29.50;;;11.70;;
67193;SDS011;54121;53.508;49.422;2022-09-21T02:27:04;28.48;;;11.23;;
67193;SDS011;54121;53.508;49.422;2022-09-21T02:32:42;18.00;;;10.73;;
67193;SDS011;54121;53.508;49.422;2022-09-21T02:35:20;21.02;;;10.90;;
67193;SDS011;54121;53.508;49.422;2022-09-21T02:40:59;24.50;;;11.88;;
67193;SDS011;54121;53.508;49.422;2022-09-21T02:43:36;27.58;;;10.77;;
67193;SDS011;54121;53.508;49.422;2022-09-21T02:49:45;25.95;;;10.77;;
67193;SDS011;54121;53.508;49.422;2022-09-21T02:52:18;28.77;;;10.48;;
67193;SDS011;54121;53.508;49.422;2022-09-21T02:54:47;25.60;;;9.88;;
67193;SDS011;54121;53.508;49.422;2022-09-21T02:57:18;26.10;;;9.10;;
67193;SDS011;54121;53.508;49.422;2022-09-21T02:59:47;29.17;;;10.48;;
67193;SDS011;54121;53.508;49.422;2022-09-21T03:02:14;24.42;;;9.40;;
67193;SDS011;54121;53.508;49.422;2022-09-21T03:04:41;22.52;;;8.57;;
67193;SDS011;54121;53.508;49.422;2022-09-21T03:07:13;26.83;;;8.60;;
67193;SDS011;54121;53.508;49.422;2022-09-21T03:09:43;21.60;;;7.43;;
67193;SDS011;54121;53.508;49.422;2022-09-21T03:12:09;16.38;;;6.60;;
67193;SDS011;54121;53.508;49.422;2022-09-21T03:14:36;32.72;;;9.73;;
67193;SDS011;54121;53.508;49.422;2022-09-21T03:17:03;36.45;;;10.98;;
67193;SDS011;54121;53.508;49.422;2022-09-21T03:19:29;36.42;;;9.60;;
67193;SDS011;54121;53.508;49.422;2022-09-21T03:21:56;48.92;;;9.93;;
67193;SDS011;54121;53.508;49.422;2022-09-21T03:24:22;45.13;;;10.80;;
67193;SDS011;54121;53.508;49.422;2022-09-21T03:27:07;46.10;;;10.77;;
67193;SDS011;54121;53.508;49.422;2022-09-21T03:29:33;31.35;;;8.63;;
67193;SDS011;54121;53.508;49.422;2022-09-21T03:32:00;30.60;;;8.10;;
67193;SDS011;54121;53.508;49.422;2022-09-21T03:34:27;17.80;;;7.25;;
67193;SDS011;54121;53.508;49.422;2022-09-21T03:36:53;14.20;;;6.20;;
67193;SDS011;54121;53.508;49.422;2022-09-21T03:39:20;14.82;;;6.85;;
67193;SDS011;54121;53.508;49.422;2022-09-21T03:41:46;14.35;;;7.13;;
67193;SDS011;54121;53.508;49.422;2022-09-21T03:44:13;25.95;;;7.40;;
67193;SDS011;54121;53.508;49.422;2022-09-21T03:46:42;28.05;;;8.23;;
67193;SDS011;54121;53.508;49.422;2022-09-21T03:49:09;14.60;;;6.75;;
67193;SDS011;54121;53.508;49.422;2022-09-21T03:51:35;26.63;;;8.93;;
67193;SDS011;54121;53.508;49.422;2022-09-21T03:54:02;16.23;;;7.35;;
67193;SDS011;54121;53.508;49.422;2022-09-21T03:56:29;18.00;;;6.43;;
67193;SDS011;54121;53.508;49.422;2022-09-21T03:58:55;16.55;;;6.72;;
67193;SDS011;54121;53.508;49.422;2022-09-21T04:01:22;16.10;;;5.97;;
67193;SDS011;54121;53.508;49.422;2022-09-21T04:03:48;26.17;;;7.05;;
67193;SDS011;54121;53.508;49.422;2022-09-21T04:06:15;16.95;;;6.57;;
67193;SDS011;54121;53.508;49.422;2022-09-21T04:08:42;26.17;;;7.13;;
67193;SDS011;54121;53.508;49.422;2022-09-21T04:11:12;17.27;;;6.90;;
67193;SDS011;54121;53.508;49.422;2022-09-21T04:13:40;10.85;;;5.45;;
67193;SDS011;54121;53.508;49.422;2022-09-21T04:16:07;12.88;;;5.40;;
67193;SDS011;54121;53.508;49.422;2022-09-21T04:18:34;9.82;;;5.35;;
67193;SDS011;54121;53.508;49.422;2022-09-21T04:21:03;20.15;;;5.85;;
67193;SDS011;54121;53.508;49.422;2022-09-21T04:23:31;11.88;;;5.75;;
67193;SDS011;54121;53.508;49.422;2022-09-21T04:25:57;12.82;;;4.63;;
67193;SDS011;54121;53.508;49.422;2022-09-21T04:28:24;22.20;;;5.93;;
67193;SDS011;54121;53.508;49.422;2022-09-21T04:30:51;9.57;;;4.03;;
67193;SDS011;54121;53.508;49.422;2022-09-21T04:33:20;12.60;;;4.85;;
67193;SDS011;54121;53.508;49.422;2022-09-21T04:35:54;6.93;;;4.03;;
67193;SDS011;54121;53.508;49.422;2022-09-21T04:38:21;11.10;;;4.32;;
67193;SDS011;54121;53.508;49.422;2022-09-21T04:40:55;8.10;;;5.00;;
67193;SDS011;54121;53.508;49.422;2022-09-21T04:43:22;4.93;;;4.03;;
67193;SDS011;54121;53.508;49.422;2022-09-21T04:45:49;9.18;;;4.53;;
67193;SDS011;54121;53.508;49.422;2022-09-21T04:48:15;9.20;;;5.13;;
67193;SDS011;54121;53.508;49.422;2022-09-21T04:50:43;19.50;;;6.00;;
67193;SDS011;54121;53.508;49.422;2022-09-21T04:53:13;14.23;;;5.45;;
67193;SDS011;54121;53.508;49.422;2022-09-21T04:55:40;8.15;;;4.35;;
67193;SDS011;54121;53.508;49.422;2022-09-21T04:58:06;9.95;;;5.18;;
67193;SDS011;54121;53.508;49.422;2022-09-21T05:00:33;10.95;;;5.00;;
67193;SDS011;54121;53.508;49.422;2022-09-21T05:02:59;14.25;;;4.97;;
67193;SDS011;54121;53.508;49.422;2022-09-21T05:05:26;10.68;;;4.75;;
67193;SDS011;54121;53.508;49.422;2022-09-21T05:07:52;8.13;;;4.60;;
67193;SDS011;54121;53.508;49.422;2022-09-21T05:10:21;9.75;;;4.93;;
67193;SDS011;54121;53.508;49.422;2022-09-21T05:12:47;7.03;;;4.15;;
67193;SDS011;54121;53.508;49.422;2022-09-21T05:15:14;6.82;;;3.90;;
67193;SDS011;54121;53.508;49.422;2022-09-21T05:17:41;7.63;;;4.53;;
67193;SDS011;54121;53.508;49.422;2022-09-21T05:20:08;12.35;;;5.18;;
67193;SDS011;54121;53.508;49.422;2022-09-21T05:22:35;21.02;;;5.78;;
67193;SDS011;54121;53.508;49.422;2022-09-21T05:25:02;8.43;;;5.32;;
67193;SDS011;54121;53.508;49.422;2022-09-21T05:27:28;13.73;;;5.30;;
67193;SDS011;54121;53.508;49.422;2022-09-21T05:29:55;16.08;;;5.63;;
67193;SDS011;54121;53.508;49.422;2022-09-21T05:35:20;13.85;;;5.25;;
67193;SDS011;54121;53.508;49.422;2022-09-21T05:40:42;8.38;;;4.43;;
67193;SDS011;54121;53.508;49.422;2022-09-21T05:43:12;8.18;;;4.20;;
67193;SDS011;54121;53.508;49.422;2022-09-21T05:45:45;14.60;;;4.72;;
67193;SDS011;54121;53.508;49.422;2022-09-21T05:48:17;10.85;;;4.95;;
67193;SDS011;54121;53.508;49.422;2022-09-21T05:51:03;9.20;;;5.05;;
67193;SDS011;54121;53.508;49.422;2022-09-21T05:53:44;9.97;;;5.17;;
67193;SDS011;54121;53.508;49.422;2022-09-21T05:59:10;9.80;;;5.63;;
67193;SDS011;54121;53.508;49.422;2022-09-21T06:02:15;9.35;;;5.78;;
67193;SDS011;54121;53.508;49.422;2022-09-21T06:04:55;12.05;;;5.70;;
67193;SDS011;54121;53.508;49.422;2022-09-21T06:07:24;11.60;;;4.97;;
67193;SDS011;54121;53.508;49.422;2022-09-21T06:09:51;10.25;;;5.47;;
67193;SDS011;54121;53.508;49.422;2022-09-21T06:12:17;9.20;;;5.32;;
67193;SDS011;54121;53.508;49.422;2022-09-21T06:14:44;13.77;;;5.30;;
67193;SDS011;54121;53.508;49.422;2022-09-21T06:17:10;16.30;;;5.60;;
67193;SDS011;54121;53.508;49.422;2022-09-21T06:19:37;10.75;;;5.00;;
67193;SDS011;54121;53.508;49.422;2022-09-21T06:22:03;9.88;;;5.55;;
67193;SDS011;54121;53.508;49.422;2022-09-21T06:24:30;12.00;;;5.35;;
67193;SDS011;54121;53.508;49.422;2022-09-21T06:26:56;9.93;;;5.03;;
67193;SDS011;54121;53.508;49.422;2022-09-21T06:29:23;9.80;;;5.20;;
67193;SDS011;54121;53.508;49.422;2022-09-21T06:31:50;10.18;;;5.30;;
67193;SDS011;54121;53.508;49.422;2022-09-21T06:34:16;11.05;;;4.70;;
67193;SDS011;54121;53.508;49.422;2022-09-21T06:36:43;20.70;;;5.13;;
67193;SDS011;54121;53.508;49.422;2022-09-21T06:39:10;7.57;;;4.35;;
67193;SDS011;54121;53.508;49.422;2022-09-21T06:41:37;11.20;;;5.35;;
67193;SDS011;54121;53.508;49.422;2022-09-21T06:44:03;13.30;;;5.43;;
67193;SDS011;54121;53.508;49.422;2022-09-21T06:46:30;8.55;;;4.18;;
67193;SDS011;54121;53.508;49.422;2022-09-21T06:48:56;8.43;;;3.75;;
67193;SDS011;54121;53.508;49.422;2022-09-21T06:51:23;10.27;;;4.47;;
67193;SDS011;54121;53.508;49.422;2022-09-21T06:53:53;8.57;;;4.10;;
67193;SDS011;54121;53.508;49.422;2022-09-21T06:56:20;7.35;;;4.18;;
67193;SDS011;54121;53.508;49.422;2022-09-21T06:58:47;14.73;;;4.25;;
67193;SDS011;54121;53.508;49.422;2022-09-21T07:01:13;8.35;;;4.07;;
67193;SDS011;54121;53.508;49.422;2022-09-21T07:03:41;8.13;;;3.78;;
67193;SDS011;54121;53.508;49.422;2022-09-21T07:06:09;7.15;;;3.55;;
67193;SDS011;54121;53.508;49.422;2022-09-21T07:08:38;13.07;;;4.15;;
67193;SDS011;54121;53.508;49.422;2022-09-21T07:11:05;9.40;;;3.95;;
67193;SDS011;54121;53.508;49.422;2022-09-21T07:13:31;9.40;;;3.42;;
67193;SDS011;54121;53.508;49.422;2022-09-21T07:16:01;17.10;;;4.05;;
67193;SDS011;54121;53.508;49.422;2022-09-21T07:18:30;10.07;;;3.45;;
67193;SDS011;54121;53.508;49.422;2022-09-21T07:21:02;15.60;;;4.15;;
67193;SDS011;54121;53.508;49.422;2022-09-21T07:23:29;10.00;;;3.50;;
67193;SDS011;54121;53.508;49.422;2022-09-21T07:25:59;11.88;;;3.38;;
67193;SDS011;54121;53.508;49.422;2022-09-21T07:28:30;12.32;;;3.63;;
67193;SDS011;54121;53.508;49.422;2022-09-21T07:30:57;12.90;;;3.38;;
67193;SDS011;54121;53.508;49.422;2022-09-21T07:33:30;9.90;;;3.33;;
67193;SDS011;54121;53.508;49.422;2022-09-21T07:35:58;18.23;;;4.32;;
67193;SDS011;54121;53.508;49.422;2022-09-21T07:38:25;11.90;;;3.90;;
67193;SDS011;54121;53.508;49.422;2022-09-21T07:40:52;8.10;;;3.90;;
67193;SDS011;54121;53.508;49.422;2022-09-21T07:43:18;10.55;;;4.22;;
67193;SDS011;54121;53.508;49.422;2022-09-21T07:45:51;11.85;;;4.05;;
67193;SDS011;54121;53.508;49.422;2022-09-21T07:48:21;17.23;;;4.20;;
67193;SDS011;54121;53.508;49.422;2022-09-21T07:50:49;11.93;;;3.90;;
67193;SDS011;54121;53.508;49.422;2022-09-21T07:53:16;8.60;;;3.38;;
67193;SDS011;54121;53.508;49.422;2022-09-21T07:55:42;12.00;;;3.85;;
67193;SDS011;54121;53.508;49.422;2022-09-21T07:58:09;15.98;;;3.80;;
67193;SDS011;54121;53.508;49.422;2022-09-21T08:00:54;11.88;;;3.33;;
67193;SDS011;54121;53.508;49.422;2022-09-21T08:03:21;16.60;;;3.53;;
67193;SDS011;54121;53.508;49.422;2022-09-21T08:05:47;8.68;;;3.25;;
67193;SDS011;54121;53.508;49.422;2022-09-21T08:08:14;13.43;;;3.50;;
67193;SDS011;54121;53.508;49.422;2022-09-21T08:10:41;15.18;;;3.78;;
67193;SDS011;54121;53.508;49.422;2022-09-21T08:13:08;13.05;;;3.17;;
67193;SDS011;54121;53.508;49.422;2022-09-21T08:15:34;13.45;;;3.65;;
67193;SDS011;54121;53.508;49.422;2022-09-21T08:18:02;16.13;;;3.78;;
67193;SDS011;54121;53.508;49.422;2022-09-21T08:20:31;12.63;;;3.78;;
67193;SDS011;54121;53.508;49.422;2022-09-21T08:22:58;13.23;;;3.72;;
67193;SDS011;54121;53.508;49.422;2022-09-21T08:25:25;13.43;;;3.30;;
67193;SDS011;54121;53.508;49.422;2022-09-21T08:27:55;8.32;;;2.95;;
67193;SDS011;54121;53.508;49.422;2022-09-21T08:30:23;9.15;;;3.17;;
67193;SDS011;54121;53.508;49.422;2022-09-21T08:32:53;8.98;;;3.13;;
67193;SDS011;54121;53.508;49.422;2022-09-21T08:35:19;10.20;;;3.00;;
67193;SDS011;54121;53.508;49.422;2022-09-21T08:37:46;9.88;;;2.60;;
67193;SDS011;54121;53.508;49.422;2022-09-21T08:40:15;9.40;;;2.40;;
67193;SDS011;54121;53.508;49.422;2022-09-21T08:45:31;9.70;;;2.95;;
67193;SDS011;54121;53.508;49.422;2022-09-21T08:48:01;13.45;;;3.03;;
67193;SDS011;54121;53.508;49.422;2022-09-21T08:53:29;13.27;;;2.53;;
67193;SDS011;54121;53.508;49.422;2022-09-21T08:56:01;6.13;;;2.00;;
67193;SDS011;54121;53.508;49.422;2022-09-21T08:58:29;8.98;;;2.33;;
67193;SDS011;54121;53.508;49.422;2022-09-21T09:06:56;9.90;;;2.22;;
67193;SDS011;54121;53.508;49.422;2022-09-21T09:20:44;10.80;;;1.90;;
67193;SDS011;54121;53.508;49.422;2022-09-21T09:23:24;5.35;;;1.50;;
67193;SDS011;54121;53.508;49.422;2022-09-21T09:26:17;6.45;;;1.67;;
67193;SDS011;54121;53.508;49.422;2022-09-21T09:29:15;9.80;;;1.73;;
67193;SDS011;54121;53.508;49.422;2022-09-21T09:31:58;4.43;;;1.45;;
67193;SDS011;54121;53.508;49.422;2022-09-21T09:34:31;10.57;;;2.03;;
67193;SDS011;54121;53.508;49.422;2022-09-21T09:37:11;8.77;;;1.92;;
67193;SDS011;54121;53.508;49.422;2022-09-21T09:39:45;7.15;;;1.92;;
67193;SDS011;54121;53.508;49.422;2022-09-21T09:50:51;9.00;;;1.90;;
67193;SDS011;54121;53.508;49.422;2022-09-21T09:53:18;11.13;;;2.10;;
67193;SDS011;54121;53.508;49.422;2022-09-21T09:55:48;7.70;;;1.55;;
67193;SDS011;54121;53.508;49.422;2022-09-21T09:59:02;5.75;;;1.60;;
67193;SDS011;54121;53.508;49.422;2022-09-21T10:01:13;8.10;;;2.00;;
67193;SDS011;54121;53.508;49.422;2022-09-21T10:04:11;5.63;;;1.75;;
67193;SDS011;54121;53.508;49.422;2022-09-21T10:06:40;8.15;;;1.90;;
67193;SDS011;54121;53.508;49.422;2022-09-21T10:12:14;6.28;;;1.90;;
67193;SDS011;54121;53.508;49.422;2022-09-21T10:14:50;5.43;;;1.83;;
67193;SDS011;54121;53.508;49.422;2022-09-21T10:17:19;7.68;;;2.13;;
67193;SDS011;54121;53.508;49.422;2022-09-21T10:19:57;7.47;;;2.15;;
67193;SDS011;54121;53.508;49.422;2022-09-21T10:24:57;7.50;;;2.03;;
67193;SDS011;54121;53.508;49.422;2022-09-21T10:27:26;6.03;;;2.10;;
67193;SDS011;54121;53.508;49.422;2022-09-21T10:29:55;7.85;;;2.47;;
67193;SDS011;54121;53.508;49.422;2022-09-21T10:32:25;11.07;;;2.47;;
67193;SDS011;54121;53.508;49.422;2022-09-21T10:37:33;9.65;;;2.83;;
67193;SDS011;54121;53.508;49.422;2022-09-21T10:42:46;9.75;;;2.88;;
67193;SDS011;54121;53.508;49.422;2022-09-21T10:50:23;16.92;;;3.70;;
67193;SDS011;54121;53.508;49.422;2022-09-21T10:52:53;10.15;;;3.38;;
67193;SDS011;54121;53.508;49.422;2022-09-21T10:55:57;15.02;;;3.40;;
67193;SDS011;54121;53.508;49.422;2022-09-21T10:58:31;12.52;;;4.15;;
67193;SDS011;54121;53.508;49.422;2022-09-21T11:01:09;16.80;;;4.00;;
67193;SDS011;54121;53.508;49.422;2022-09-21T11:04:02;9.23;;;3.20;;
67193;SDS011;54121;53.508;49.422;2022-09-21T11:06:38;12.73;;;3.35;;
67193;SDS011;54121;53.508;49.422;2022-09-21T11:15:02;11.43;;;3.00;;
67193;SDS011;54121;53.508;49.422;2022-09-21T11:17:43;15.40;;;5.20;;
67193;SDS011;54121;53.508;49.422;2022-09-21T11:20:51;10.32;;;3.17;;
67193;SDS011;54121;53.508;49.422;2022-09-21T11:23:43;15.20;;;3.53;;
67193;SDS011;54121;53.508;49.422;2022-09-21T11:26:36;9.65;;;2.50;;
67193;SDS011;54121;53.508;49.422;2022-09-21T11:31:59;7.20;;;2.53;;
67193;SDS011;54121;53.508;49.422;2022-09-21T11:37:50;7.57;;;3.00;;
67193;SDS011;54121;53.508;49.422;2022-09-21T11:46:24;11.68;;;2.90;;
67193;SDS011;54121;53.508;49.422;2022-09-21T11:51:53;11.38;;;2.72;;
67193;SDS011;54121;53.508;49.422;2022-09-21T11:54:41;9.77;;;3.33;;
67193;SDS011;54121;53.508;49.422;2022-09-21T11:57:44;13.73;;;3.28;;
67193;SDS011;54121;53.508;49.422;2022-09-21T12:00:15;14.60;;;4.85;;
67193;SDS011;54121;53.508;49.422;2022-09-21T12:03:01;14.88;;;3.70;;
67193;SDS011;54121;53.508;49.422;2022-09-21T12:08:37;11.50;;;3.58;;
67193;SDS011;54121;53.508;49.422;2022-09-21T12:22:10;10.85;;;3.85;;
67193;SDS011;54121;53.508;49.422;2022-09-21T12:24:43;15.90;;;4.78;;
67193;SDS011;54121;53.508;49.422;2022-09-21T12:27:33;14.70;;;4.63;;
67193;SDS011;54121;53.508;49.422;2022-09-21T12:30:14;11.48;;;4.20;;
67193;SDS011;54121;53.508;49.422;2022-09-21T12:38:16;13.00;;;3.45;;
67193;SDS011;54121;53.508;49.422;2022-09-21T12:43:55;17.27;;;4.20;;
67193;SDS011;54121;53.508;49.422;2022-09-21T12:46:30;12.25;;;3.00;;
67193;SDS011;54121;53.508;49.422;2022-09-21T12:49:08;13.68;;;2.97;;
67193;SDS011;54121;53.508;49.422;2022-09-21T12:51:44;11.77;;;2.78;;
67193;SDS011;54121;53.508;49.422;2022-09-21T12:59:39;14.75;;;3.08;;
67193;SDS011;54121;53.508;49.422;2022-09-21T13:02:39;12.85;;;2.78;;
67193;SDS011;54121;53.508;49.422;2022-09-21T13:13:28;8.68;;;2.67;;
67193;SDS011;54121;53.508;49.422;2022-09-21T13:16:24;12.43;;;3.10;;
67193;SDS011;54121;53.508;49.422;2022-09-21T13:19:02;13.65;;;3.78;;
67193;SDS011;54121;53.508;49.422;2022-09-21T13:24:38;10.30;;;3.03;;
67193;SDS011;54121;53.508;49.422;2022-09-21T13:27:06;13.17;;;3.80;;
67193;SDS011;54121;53.508;49.422;2022-09-21T13:29:34;7.97;;;3.30;;
67193;SDS011;54121;53.508;49.422;2022-09-21T13:34:39;10.32;;;3.47;;
67193;SDS011;54121;53.508;49.422;2022-09-21T13:44:58;14.02;;;4.18;;
67193;SDS011;54121;53.508;49.422;2022-09-21T13:47:41;12.13;;;3.67;;
67193;SDS011;54121;53.508;49.422;2022-09-21T13:50:15;10.10;;;3.30;;
67193;SDS011;54121;53.508;49.422;2022-09-21T13:52:51;10.00;;;3.13;;
67193;SDS011;54121;53.508;49.422;2022-09-21T13:55:27;12.80;;;4.13;;
67193;SDS011;54121;53.508;49.422;2022-09-21T13:57:57;16.00;;;4.45;;
67193;SDS011;54121;53.508;49.422;2022-09-21T14:00:31;13.98;;;3.55;;
67193;SDS011;54121;53.508;49.422;2022-09-21T14:03:00;13.35;;;3.70;;
67193;SDS011;54121;53.508;49.422;2022-09-21T14:05:36;12.40;;;3.83;;
67193;SDS011;54121;53.508;49.422;2022-09-21T14:10:39;14.52;;;4.40;;
67193;SDS011;54121;53.508;49.422;2022-09-21T14:13:31;12.77;;;4.05;;
67193;SDS011;54121;53.508;49.422;2022-09-21T14:18:52;11.82;;;4.72;;
67193;SDS011;54121;53.508;49.422;2022-09-21T14:21:19;18.55;;;6.03;;
67193;SDS011;54121;53.508;49.422;2022-09-21T14:26:53;17.85;;;7.70;;
67193;SDS011;54121;53.508;49.422;2022-09-21T14:32:32;14.38;;;6.05;;
67193;SDS011;54121;53.508;49.422;2022-09-21T14:35:19;13.02;;;4.38;;
67193;SDS011;54121;53.508;49.422;2022-09-21T14:37:55;20.23;;;10.45;;
67193;SDS011;54121;53.508;49.422;2022-09-21T14:40:36;18.33;;;8.68;;
67193;SDS011;54121;53.508;49.422;2022-09-21T14:43:24;16.55;;;7.10;;
67193;SDS011;54121;53.508;49.422;2022-09-21T14:48:48;14.63;;;4.40;;
67193;SDS011;54121;53.508;49.422;2022-09-21T15:01:59;12.63;;;4.88;;
67193;SDS011;54121;53.508;49.422;2022-09-21T15:18:15;19.63;;;6.65;;
67193;SDS011;54121;53.508;49.422;2022-09-21T15:20:58;12.40;;;5.20;;
67193;SDS011;54121;53.508;49.422;2022-09-21T15:23:27;19.20;;;6.53;;
67193;SDS011;54121;53.508;49.422;2022-09-21T15:26:01;14.70;;;6.10;;
67193;SDS011;54121;53.508;49.422;2022-09-21T15:28:37;14.55;;;6.70;;
67193;SDS011;54121;53.508;49.422;2022-09-21T15:31:08;13.50;;;5.50;;
67193;SDS011;54121;53.508;49.422;2022-09-21T15:33:37;14.40;;;4.80;;
67193;SDS011;54121;53.508;49.422;2022-09-21T15:36:06;14.90;;;4.50;;
67193;SDS011;54121;53.508;49.422;2022-09-21T15:38:34;13.73;;;6.05;;
67193;SDS011;54121;53.508;49.422;2022-09-21T15:41:04;15.93;;;5.87;;
67193;SDS011;54121;53.508;49.422;2022-09-21T15:43:31;24.95;;;6.65;;
67193;SDS011;54121;53.508;49.422;2022-09-21T15:46:00;14.98;;;5.32;;
67193;SDS011;54121;53.508;49.422;2022-09-21T15:48:28;12.97;;;6.43;;
67193;SDS011;54121;53.508;49.422;2022-09-21T15:51:14;15.90;;;5.20;;
67193;SDS011;54121;53.508;49.422;2022-09-21T15:53:56;13.35;;;5.50;;
67193;SDS011;54121;53.508;49.422;2022-09-21T15:56:29;21.85;;;5.88;;
67193;SDS011;54121;53.508;49.422;2022-09-21T15:59:02;15.75;;;5.72;;
67193;SDS011;54121;53.508;49.422;2022-09-21T16:01:43;11.55;;;4.90;;
67193;SDS011;54121;53.508;49.422;2022-09-21T16:04:14;16.90;;;5.28;;
67193;SDS011;54121;53.508;49.422;2022-09-21T16:06:47;13.13;;;4.70;;
67193;SDS011;54121;53.508;49.422;2022-09-21T16:09:38;12.68;;;4.72;;
67193;SDS011;54121;53.508;49.422;2022-09-21T16:14:52;15.00;;;5.15;;
67193;SDS011;54121;53.508;49.422;2022-09-21T16:17:28;14.73;;;5.18;;
67193;SDS011;54121;53.508;49.422;2022-09-21T16:22:40;17.70;;;4.72;;
67193;SDS011;54121;53.508;49.422;2022-09-21T16:25:51;19.45;;;5.30;;
67193;SDS011;54121;53.508;49.422;2022-09-21T16:30:53;12.30;;;5.43;;
67193;SDS011;54121;53.508;49.422;2022-09-21T16:36:03;12.73;;;5.07;;
67193;SDS011;54121;53.508;49.422;2022-09-21T16:38:57;12.05;;;5.53;;
67193;SDS011;54121;53.508;49.422;2022-09-21T16:44:10;14.77;;;5.20;;
67193;SDS011;54121;53.508;49.422;2022-09-21T16:46:54;15.57;;;5.53;;
67193;SDS011;54121;53.508;49.422;2022-09-21T16:49:26;14.73;;;6.13;;
67193;SDS011;54121;53.508;49.422;2022-09-21T16:51:55;18.77;;;5.82;;
67193;SDS011;54121;53.508;49.422;2022-09-21T16:54:24;17.23;;;6.20;;
67193;SDS011;54121;53.508;49.422;2022-09-21T16:56:52;11.93;;;6.03;;
67193;SDS011;54121;53.508;49.422;2022-09-21T16:59:20;14.98;;;5.70;;
67193;SDS011;54121;53.508;49.422;2022-09-21T17:01:48;14.13;;;5.75;;
67193;SDS011;54121;53.508;49.422;2022-09-21T17:06:46;22.55;;;5.60;;
67193;SDS011;54121;53.508;49.422;2022-09-21T17:09:15;12.38;;;5.50;;
67193;SDS011;54121;53.508;49.422;2022-09-21T17:11:50;10.60;;;5.10;;
67193;SDS011;54121;53.508;49.422;2022-09-21T17:14:18;10.88;;;4.97;;
67193;SDS011;54121;53.508;49.422;2022-09-21T17:16:48;10.50;;;5.80;;
67193;SDS011;54121;53.508;49.422;2022-09-21T17:19:19;12.30;;;5.65;;
67193;SDS011;54121;53.508;49.422;2022-09-21T17:21:46;11.77;;;4.75;;
67193;SDS011;54121;53.508;49.422;2022-09-21T17:24:13;12.82;;;4.70;;
67193;SDS011;54121;53.508;49.422;2022-09-21T17:26:41;16.88;;;5.88;;
67193;SDS011;54121;53.508;49.422;2022-09-21T17:29:17;15.43;;;5.68;;
67193;SDS011;54121;53.508;49.422;2022-09-21T17:31:50;12.27;;;5.63;;
67193;SDS011;54121;53.508;49.422;2022-09-21T17:34:21;11.70;;;5.03;;
67193;SDS011;54121;53.508;49.422;2022-09-21T17:36:50;11.27;;;4.85;;
67193;SDS011;54121;53.508;49.422;2022-09-21T17:39:17;12.90;;;5.47;;
67193;SDS011;54121;53.508;49.422;2022-09-21T17:41:58;10.90;;;5.50;;
67193;SDS011;54121;53.508;49.422;2022-09-21T17:49:46;8.18;;;4.57;;
67193;SDS011;54121;53.508;49.422;2022-09-21T17:52:14;11.63;;;4.20;;
67193;SDS011;54121;53.508;49.422;2022-09-21T17:55:01;12.88;;;4.95;;
67193;SDS011;54121;53.508;49.422;2022-09-21T17:57:39;14.60;;;4.65;;
67193;SDS011;54121;53.508;49.422;2022-09-21T18:00:27;8.27;;;4.10;;
67193;SDS011;54121;53.508;49.422;2022-09-21T18:03:26;12.50;;;4.78;;
67193;SDS011;54121;53.508;49.422;2022-09-21T18:05:54;17.67;;;4.88;;
67193;SDS011;54121;53.508;49.422;2022-09-21T18:08:25;9.27;;;4.60;;
67193;SDS011;54121;53.508;49.422;2022-09-21T18:11:02;14.23;;;5.32;;
67193;SDS011;54121;53.508;49.422;2022-09-21T18:13:47;16.65;;;5.20;;
67193;SDS011;54121;53.508;49.422;2022-09-21T18:16:27;9.43;;;4.15;;
67193;SDS011;54121;53.508;49.422;2022-09-21T18:21:48;15.95;;;5.38;;
67193;SDS011;54121;53.508;49.422;2022-09-21T18:24:25;10.52;;;6.30;;
67193;SDS011;54121;53.508;49.422;2022-09-21T18:26:52;15.18;;;6.18;;
67193;SDS011;54121;53.508;49.422;2022-09-21T18:29:27;13.38;;;6.35;;
67193;SDS011;54121;53.508;49.422;2022-09-21T18:46:09;17.08;;;7.57;;
67193;SDS011;54121;53.508;49.422;2022-09-21T18:51:52;18.25;;;8.65;;